Terminal Aerodrome Forecast
Issued by NWS

Home | Current Version | Previous Version | Text Only | Print | Product List | Glossary On
Versions: 1 2 3 4 5 6 7 8 9 10 11 12 13 14
000
FTUS42 KMLB 300500
TAFISM
TAF
KISM 300529Z 3006/0106 20003KT P6SM SCT004 SCT010 BKN150
      TEMPO 3006/3009 BKN010 OVC040
     FM300900 22006KT P6SM SCT008 OVC012
      TEMPO 3009/3011 3SM BR OVC008
     FM301200 25006KT P6SM VCSH SCT010 BKN020
     FM301600 28007KT P6SM VCSH SCT010 OVC035
      TEMPO 3016/3020 3SM SHRA BKN025
     FM302000 29007KT P6SM SCT020 OVC040
      TEMPO 3020/3023 2SM SHRA BKN020
     FM010000 30004KT P6SM VCSH SCT020 BKN040
     FM010300 31003KT P6SM SCT020 SCT100 BKN250
      AMD NOT SKED 3006/3011=

USA.gov is the U.S. government's official web portal to all federal, state and local government web resources and services.